sensor_id;sensor_type;location;lat;lon;timestamp;temperature;humidity
61398;DHT22;47267;48.130;-2.040;2023-06-05T00:01:59;24.40;51.90
61398;DHT22;47267;48.130;-2.040;2023-06-05T00:04:25;24.40;51.90
61398;DHT22;47267;48.130;-2.040;2023-06-05T00:06:50;24.40;51.90
61398;DHT22;47267;48.130;-2.040;2023-06-05T00:09:17;24.40;51.90
61398;DHT22;47267;48.130;-2.040;2023-06-05T00:11:42;24.40;51.90
61398;DHT22;47267;48.130;-2.040;2023-06-05T00:14:08;24.40;51.90
61398;DHT22;47267;48.130;-2.040;2023-06-05T00:16:34;24.40;51.90
61398;DHT22;47267;48.130;-2.040;2023-06-05T00:19:01;24.40;51.90
61398;DHT22;47267;48.130;-2.040;2023-06-05T00:21:26;24.40;51.80
61398;DHT22;47267;48.130;-2.040;2023-06-05T00:23:53;24.40;51.80
61398;DHT22;47267;48.130;-2.040;2023-06-05T00:26:19;24.40;51.80
61398;DHT22;47267;48.130;-2.040;2023-06-05T00:28:46;24.40;51.90
61398;DHT22;47267;48.130;-2.040;2023-06-05T00:31:11;24.30;51.80
61398;DHT22;47267;48.130;-2.040;2023-06-05T00:33:38;24.30;51.80
61398;DHT22;47267;48.130;-2.040;2023-06-05T00:36:05;24.30;51.80
61398;DHT22;47267;48.130;-2.040;2023-06-05T00:38:31;24.30;51.80
61398;DHT22;47267;48.130;-2.040;2023-06-05T00:40:56;24.30;51.80
61398;DHT22;47267;48.130;-2.040;2023-06-05T00:43:22;24.30;52.40
61398;DHT22;47267;48.130;-2.040;2023-06-05T00:45:49;24.30;51.80
61398;DHT22;47267;48.130;-2.040;2023-06-05T00:48:16;24.30;51.80
61398;DHT22;47267;48.130;-2.040;2023-06-05T00:50:42;24.30;51.80
61398;DHT22;47267;48.130;-2.040;2023-06-05T00:53:08;24.20;51.70
61398;DHT22;47267;48.130;-2.040;2023-06-05T00:55:34;24.30;51.80
61398;DHT22;47267;48.130;-2.040;2023-06-05T00:58:01;24.20;51.70
61398;DHT22;47267;48.130;-2.040;2023-06-05T01:00:28;24.20;51.70
61398;DHT22;47267;48.130;-2.040;2023-06-05T01:02:54;24.20;51.70
61398;DHT22;47267;48.130;-2.040;2023-06-05T01:05:24;24.20;51.70
61398;DHT22;47267;48.130;-2.040;2023-06-05T01:07:50;24.20;51.70
61398;DHT22;47267;48.130;-2.040;2023-06-05T01:10:16;24.20;51.70
61398;DHT22;47267;48.130;-2.040;2023-06-05T01:15:43;24.20;51.70
61398;DHT22;47267;48.130;-2.040;2023-06-05T01:18:09;24.20;51.70
61398;DHT22;47267;48.130;-2.040;2023-06-05T01:20:38;24.20;51.70
61398;DHT22;47267;48.130;-2.040;2023-06-05T01:23:08;24.20;51.70
61398;DHT22;47267;48.130;-2.040;2023-06-05T01:25:34;24.20;52.30
61398;DHT22;47267;48.130;-2.040;2023-06-05T01:28:17;24.10;51.70
61398;DHT22;47267;48.130;-2.040;2023-06-05T01:30:51;24.20;51.70
61398;DHT22;47267;48.130;-2.040;2023-06-05T01:33:40;24.10;51.70
61398;DHT22;47267;48.130;-2.040;2023-06-05T01:36:11;24.10;51.70
61398;DHT22;47267;48.130;-2.040;2023-06-05T01:38:40;24.10;51.60
61398;DHT22;47267;48.130;-2.040;2023-06-05T01:41:07;24.10;51.70
61398;DHT22;47267;48.130;-2.040;2023-06-05T01:43:34;24.10;51.60
61398;DHT22;47267;48.130;-2.040;2023-06-05T01:46:00;24.10;51.70
61398;DHT22;47267;48.130;-2.040;2023-06-05T01:48:27;24.10;51.70
61398;DHT22;47267;48.130;-2.040;2023-06-05T01:51:00;24.10;51.60
61398;DHT22;47267;48.130;-2.040;2023-06-05T01:53:27;24.10;51.70
61398;DHT22;47267;48.130;-2.040;2023-06-05T01:55:53;24.10;51.60
61398;DHT22;47267;48.130;-2.040;2023-06-05T01:58:25;24.00;51.60
61398;DHT22;47267;48.130;-2.040;2023-06-05T02:00:52;24.00;51.60
61398;DHT22;47267;48.130;-2.040;2023-06-05T02:03:18;24.00;51.60
61398;DHT22;47267;48.130;-2.040;2023-06-05T02:05:45;24.00;51.60
61398;DHT22;47267;48.130;-2.040;2023-06-05T02:08:10;24.00;51.60
61398;DHT22;47267;48.130;-2.040;2023-06-05T02:10:36;24.00;51.60
61398;DHT22;47267;48.130;-2.040;2023-06-05T02:13:08;24.00;51.60
61398;DHT22;47267;48.130;-2.040;2023-06-05T02:15:34;24.00;52.20
61398;DHT22;47267;48.130;-2.040;2023-06-05T02:18:02;23.90;51.50
61398;DHT22;47267;48.130;-2.040;2023-06-05T02:20:28;23.90;51.60
61398;DHT22;47267;48.130;-2.040;2023-06-05T02:22:54;24.00;51.60
61398;DHT22;47267;48.130;-2.040;2023-06-05T02:25:21;24.00;51.60
61398;DHT22;47267;48.130;-2.040;2023-06-05T02:27:47;23.90;51.50
61398;DHT22;47267;48.130;-2.040;2023-06-05T02:30:13;23.90;51.50
61398;DHT22;47267;48.130;-2.040;2023-06-05T02:32:39;23.90;51.50
61398;DHT22;47267;48.130;-2.040;2023-06-05T02:35:12;23.90;51.50
61398;DHT22;47267;48.130;-2.040;2023-06-05T02:37:38;23.90;51.50
61398;DHT22;47267;48.130;-2.040;2023-06-05T02:40:12;23.90;51.50
61398;DHT22;47267;48.130;-2.040;2023-06-05T02:42:38;23.90;51.50
61398;DHT22;47267;48.130;-2.040;2023-06-05T02:45:04;23.80;51.50
61398;DHT22;47267;48.130;-2.040;2023-06-05T02:47:31;23.90;51.60
61398;DHT22;47267;48.130;-2.040;2023-06-05T02:50:00;23.80;51.50
61398;DHT22;47267;48.130;-2.040;2023-06-05T02:52:26;23.90;51.50
61398;DHT22;47267;48.130;-2.040;2023-06-05T02:54:53;23.90;51.60
61398;DHT22;47267;48.130;-2.040;2023-06-05T02:57:19;23.80;51.50
61398;DHT22;47267;48.130;-2.040;2023-06-05T02:59:45;23.80;51.50
61398;DHT22;47267;48.130;-2.040;2023-06-05T03:02:10;23.80;51.50
61398;DHT22;47267;48.130;-2.040;2023-06-05T03:04:37;23.80;51.50
61398;DHT22;47267;48.130;-2.040;2023-06-05T03:07:05;23.70;51.40
61398;DHT22;47267;48.130;-2.040;2023-06-05T03:09:31;23.80;51.50
61398;DHT22;47267;48.130;-2.040;2023-06-05T03:11:57;23.70;51.40
61398;DHT22;47267;48.130;-2.040;2023-06-05T03:14:23;23.70;51.40
61398;DHT22;47267;48.130;-2.040;2023-06-05T03:16:49;23.70;51.40
61398;DHT22;47267;48.130;-2.040;2023-06-05T03:19:14;23.70;51.40
61398;DHT22;47267;48.130;-2.040;2023-06-05T03:21:40;23.70;51.50
61398;DHT22;47267;48.130;-2.040;2023-06-05T03:24:10;23.70;51.40
61398;DHT22;47267;48.130;-2.040;2023-06-05T03:26:39;23.70;51.40
61398;DHT22;47267;48.130;-2.040;2023-06-05T03:29:06;23.70;51.40
61398;DHT22;47267;48.130;-2.040;2023-06-05T03:31:32;23.70;51.40
61398;DHT22;47267;48.130;-2.040;2023-06-05T03:33:57;23.70;51.40
61398;DHT22;47267;48.130;-2.040;2023-06-05T03:36:25;23.60;51.40
61398;DHT22;47267;48.130;-2.040;2023-06-05T03:38:51;23.60;51.40
61398;DHT22;47267;48.130;-2.040;2023-06-05T03:41:17;23.60;51.40
61398;DHT22;47267;48.130;-2.040;2023-06-05T03:43:42;23.60;51.40
61398;DHT22;47267;48.130;-2.040;2023-06-05T03:46:08;23.60;51.40
61398;DHT22;47267;48.130;-2.040;2023-06-05T03:48:35;23.60;51.40
61398;DHT22;47267;48.130;-2.040;2023-06-05T03:51:01;23.50;51.30
61398;DHT22;47267;48.130;-2.040;2023-06-05T03:53:27;23.50;51.40
61398;DHT22;47267;48.130;-2.040;2023-06-05T03:55:55;23.50;51.40
61398;DHT22;47267;48.130;-2.040;2023-06-05T03:58:22;23.50;51.30
61398;DHT22;47267;48.130;-2.040;2023-06-05T04:00:48;23.50;51.30
61398;DHT22;47267;48.130;-2.040;2023-06-05T04:03:14;23.50;51.40
61398;DHT22;47267;48.130;-2.040;2023-06-05T04:05:41;23.50;51.30
61398;DHT22;47267;48.130;-2.040;2023-06-05T04:08:10;23.40;51.60
61398;DHT22;47267;48.130;-2.040;2023-06-05T04:10:36;23.50;51.40
61398;DHT22;47267;48.130;-2.040;2023-06-05T04:13:02;23.40;51.30
61398;DHT22;47267;48.130;-2.040;2023-06-05T04:15:31;23.40;51.30
61398;DHT22;47267;48.130;-2.040;2023-06-05T04:17:57;23.40;51.30
61398;DHT22;47267;48.130;-2.040;2023-06-05T04:20:23;23.40;51.30
61398;DHT22;47267;48.130;-2.040;2023-06-05T04:22:49;23.40;51.30
61398;DHT22;47267;48.130;-2.040;2023-06-05T04:25:15;23.40;51.30
61398;DHT22;47267;48.130;-2.040;2023-06-05T04:27:43;23.40;51.30
61398;DHT22;47267;48.130;-2.040;2023-06-05T04:30:11;23.40;51.40
61398;DHT22;47267;48.130;-2.040;2023-06-05T04:32:38;23.40;51.30
61398;DHT22;47267;48.130;-2.040;2023-06-05T04:35:08;23.40;51.30
61398;DHT22;47267;48.130;-2.040;2023-06-05T04:37:34;23.30;51.20
61398;DHT22;47267;48.130;-2.040;2023-06-05T04:40:04;23.30;51.20
61398;DHT22;47267;48.130;-2.040;2023-06-05T04:42:35;23.30;51.20
61398;DHT22;47267;48.130;-2.040;2023-06-05T04:45:03;23.30;51.20
61398;DHT22;47267;48.130;-2.040;2023-06-05T04:47:30;23.30;51.20
61398;DHT22;47267;48.130;-2.040;2023-06-05T04:50:01;23.30;51.20
61398;DHT22;47267;48.130;-2.040;2023-06-05T04:52:33;23.30;51.30
61398;DHT22;47267;48.130;-2.040;2023-06-05T04:54:59;23.20;51.20
61398;DHT22;47267;48.130;-2.040;2023-06-05T04:57:27;23.20;51.20
61398;DHT22;47267;48.130;-2.040;2023-06-05T04:59:53;23.20;51.20
61398;DHT22;47267;48.130;-2.040;2023-06-05T05:02:19;23.20;51.20
61398;DHT22;47267;48.130;-2.040;2023-06-05T05:04:45;23.20;51.80
61398;DHT22;47267;48.130;-2.040;2023-06-05T05:07:10;23.20;51.20
61398;DHT22;47267;48.130;-2.040;2023-06-05T05:09:41;23.10;51.10
61398;DHT22;47267;48.130;-2.040;2023-06-05T05:12:07;23.10;51.10
61398;DHT22;47267;48.130;-2.040;2023-06-05T05:14:33;23.10;51.10
61398;DHT22;47267;48.130;-2.040;2023-06-05T05:16:59;23.10;51.10
61398;DHT22;47267;48.130;-2.040;2023-06-05T05:19:27;23.10;51.10
61398;DHT22;47267;48.130;-2.040;2023-06-05T05:21:52;23.10;51.10
61398;DHT22;47267;48.130;-2.040;2023-06-05T05:24:18;23.10;51.10
61398;DHT22;47267;48.130;-2.040;2023-06-05T05:26:44;23.00;51.10
61398;DHT22;47267;48.130;-2.040;2023-06-05T05:29:09;23.10;51.10
61398;DHT22;47267;48.130;-2.040;2023-06-05T05:31:35;23.10;51.10
61398;DHT22;47267;48.130;-2.040;2023-06-05T05:34:01;23.00;51.10
61398;DHT22;47267;48.130;-2.040;2023-06-05T05:36:27;23.00;51.10
61398;DHT22;47267;48.130;-2.040;2023-06-05T05:38:53;23.00;51.10
61398;DHT22;47267;48.130;-2.040;2023-06-05T05:41:19;23.00;51.10
61398;DHT22;47267;48.130;-2.040;2023-06-05T05:43:46;23.00;51.10
61398;DHT22;47267;48.130;-2.040;2023-06-05T05:46:12;23.00;51.10
61398;DHT22;47267;48.130;-2.040;2023-06-05T05:48:38;23.00;51.10
61398;DHT22;47267;48.130;-2.040;2023-06-05T05:51:06;23.00;51.10
61398;DHT22;47267;48.130;-2.040;2023-06-05T05:53:33;22.90;51.00
61398;DHT22;47267;48.130;-2.040;2023-06-05T05:55:59;22.90;51.00
61398;DHT22;47267;48.130;-2.040;2023-06-05T05:58:25;22.90;51.00
61398;DHT22;47267;48.130;-2.040;2023-06-05T06:00:51;22.90;51.00
61398;DHT22;47267;48.130;-2.040;2023-06-05T06:03:17;22.90;51.00
61398;DHT22;47267;48.130;-2.040;2023-06-05T06:05:43;22.90;51.10
61398;DHT22;47267;48.130;-2.040;2023-06-05T06:08:10;22.90;51.10
61398;DHT22;47267;48.130;-2.040;2023-06-05T06:10:36;22.90;51.10
61398;DHT22;47267;48.130;-2.040;2023-06-05T06:13:03;22.90;51.10
61398;DHT22;47267;48.130;-2.040;2023-06-05T06:15:30;22.80;51.00
61398;DHT22;47267;48.130;-2.040;2023-06-05T06:17:55;22.80;51.00
61398;DHT22;47267;48.130;-2.040;2023-06-05T06:20:22;22.80;51.00
61398;DHT22;47267;48.130;-2.040;2023-06-05T06:22:48;22.80;51.00
61398;DHT22;47267;48.130;-2.040;2023-06-05T06:25:14;22.80;51.00
61398;DHT22;47267;48.130;-2.040;2023-06-05T06:27:44;22.80;50.90
61398;DHT22;47267;48.130;-2.040;2023-06-05T06:30:17;22.80;50.90
61398;DHT22;47267;48.130;-2.040;2023-06-05T06:32:42;22.70;50.80
61398;DHT22;47267;48.130;-2.040;2023-06-05T06:35:08;22.70;50.50
61398;DHT22;47267;48.130;-2.040;2023-06-05T06:37:34;22.70;50.70
61398;DHT22;47267;48.130;-2.040;2023-06-05T06:39:59;22.70;50.70
61398;DHT22;47267;48.130;-2.040;2023-06-05T06:42:25;22.60;50.50
61398;DHT22;47267;48.130;-2.040;2023-06-05T06:44:53;22.60;50.60
61398;DHT22;47267;48.130;-2.040;2023-06-05T06:47:22;22.60;50.60
61398;DHT22;47267;48.130;-2.040;2023-06-05T06:49:48;22.50;50.60
61398;DHT22;47267;48.130;-2.040;2023-06-05T06:52:13;22.50;50.60
61398;DHT22;47267;48.130;-2.040;2023-06-05T06:54:39;22.50;50.60
61398;DHT22;47267;48.130;-2.040;2023-06-05T06:57:05;22.50;50.60
61398;DHT22;47267;48.130;-2.040;2023-06-05T06:59:30;22.40;50.60
61398;DHT22;47267;48.130;-2.040;2023-06-05T07:02:15;22.40;50.60
61398;DHT22;47267;48.130;-2.040;2023-06-05T07:04:42;22.40;50.60
61398;DHT22;47267;48.130;-2.040;2023-06-05T07:07:13;22.40;50.60
61398;DHT22;47267;48.130;-2.040;2023-06-05T07:09:44;22.30;50.60
61398;DHT22;47267;48.130;-2.040;2023-06-05T07:12:11;22.30;50.60
61398;DHT22;47267;48.130;-2.040;2023-06-05T07:14:38;22.20;50.60
61398;DHT22;47267;48.130;-2.040;2023-06-05T07:17:04;22.20;50.60
61398;DHT22;47267;48.130;-2.040;2023-06-05T07:19:31;22.20;50.60
61398;DHT22;47267;48.130;-2.040;2023-06-05T07:21:58;22.20;50.60
61398;DHT22;47267;48.130;-2.040;2023-06-05T07:24:25;22.10;50.60
61398;DHT22;47267;48.130;-2.040;2023-06-05T07:26:55;22.10;50.60
61398;DHT22;47267;48.130;-2.040;2023-06-05T07:29:22;22.10;50.60
61398;DHT22;47267;48.130;-2.040;2023-06-05T07:31:50;22.10;50.60
61398;DHT22;47267;48.130;-2.040;2023-06-05T07:34:17;22.00;50.60
61398;DHT22;47267;48.130;-2.040;2023-06-05T07:36:45;22.10;50.60
61398;DHT22;47267;48.130;-2.040;2023-06-05T07:39:12;22.00;50.60
61398;DHT22;47267;48.130;-2.040;2023-06-05T07:41:38;22.00;50.60
61398;DHT22;47267;48.130;-2.040;2023-06-05T07:44:12;22.00;50.60
61398;DHT22;47267;48.130;-2.040;2023-06-05T07:46:42;22.00;50.70
61398;DHT22;47267;48.130;-2.040;2023-06-05T07:49:08;21.90;50.60
61398;DHT22;47267;48.130;-2.040;2023-06-05T07:51:35;22.00;50.70
61398;DHT22;47267;48.130;-2.040;2023-06-05T07:54:06;21.90;50.60
61398;DHT22;47267;48.130;-2.040;2023-06-05T07:56:32;21.90;50.70
61398;DHT22;47267;48.130;-2.040;2023-06-05T07:58:59;21.90;50.70
61398;DHT22;47267;48.130;-2.040;2023-06-05T08:01:26;21.90;50.70
61398;DHT22;47267;48.130;-2.040;2023-06-05T08:03:53;21.80;50.60
61398;DHT22;47267;48.130;-2.040;2023-06-05T08:06:18;21.90;50.70
61398;DHT22;47267;48.130;-2.040;2023-06-05T08:08:45;21.80;50.70
61398;DHT22;47267;48.130;-2.040;2023-06-05T08:11:11;21.80;50.70
61398;DHT22;47267;48.130;-2.040;2023-06-05T08:13:37;21.80;50.70
61398;DHT22;47267;48.130;-2.040;2023-06-05T08:16:06;21.80;50.70
61398;DHT22;47267;48.130;-2.040;2023-06-05T08:18:32;21.80;50.70
61398;DHT22;47267;48.130;-2.040;2023-06-05T08:20:58;21.80;50.80
61398;DHT22;47267;48.130;-2.040;2023-06-05T08:23:24;21.80;50.80
61398;DHT22;47267;48.130;-2.040;2023-06-05T08:25:49;21.80;50.80
61398;DHT22;47267;48.130;-2.040;2023-06-05T08:28:15;21.80;50.80
61398;DHT22;47267;48.130;-2.040;2023-06-05T08:30:42;21.80;50.80
61398;DHT22;47267;48.130;-2.040;2023-06-05T08:33:07;21.80;50.80
61398;DHT22;47267;48.130;-2.040;2023-06-05T08:35:33;21.80;50.80
61398;DHT22;47267;48.130;-2.040;2023-06-05T08:37:59;21.80;50.80
61398;DHT22;47267;48.130;-2.040;2023-06-05T08:40:28;21.70;50.80
61398;DHT22;47267;48.130;-2.040;2023-06-05T08:42:55;21.80;50.80
61398;DHT22;47267;48.130;-2.040;2023-06-05T08:45:21;21.80;50.80
61398;DHT22;47267;48.130;-2.040;2023-06-05T08:47:50;21.70;50.80
61398;DHT22;47267;48.130;-2.040;2023-06-05T08:50:17;21.80;50.90
61398;DHT22;47267;48.130;-2.040;2023-06-05T08:52:44;21.80;50.90
61398;DHT22;47267;48.130;-2.040;2023-06-05T08:55:12;21.80;50.90
61398;DHT22;47267;48.130;-2.040;2023-06-05T08:57:40;21.80;50.90
61398;DHT22;47267;48.130;-2.040;2023-06-05T09:00:09;21.80;50.90
61398;DHT22;47267;48.130;-2.040;2023-06-05T09:02:40;21.70;50.90
61398;DHT22;47267;48.130;-2.040;2023-06-05T09:05:08;21.70;50.90
61398;DHT22;47267;48.130;-2.040;2023-06-05T09:07:35;21.80;50.90
61398;DHT22;47267;48.130;-2.040;2023-06-05T09:10:03;21.80;51.10
61398;DHT22;47267;48.130;-2.040;2023-06-05T09:12:28;21.80;51.00
61398;DHT22;47267;48.130;-2.040;2023-06-05T09:14:54;21.80;51.00
61398;DHT22;47267;48.130;-2.040;2023-06-05T09:17:21;21.80;51.00
61398;DHT22;47267;48.130;-2.040;2023-06-05T09:19:47;21.80;51.00
61398;DHT22;47267;48.130;-2.040;2023-06-05T09:22:13;21.80;51.00
61398;DHT22;47267;48.130;-2.040;2023-06-05T09:24:40;21.80;51.00
61398;DHT22;47267;48.130;-2.040;2023-06-05T09:27:08;21.80;51.10
61398;DHT22;47267;48.130;-2.040;2023-06-05T09:29:39;21.80;51.10
61398;DHT22;47267;48.130;-2.040;2023-06-05T09:32:07;21.80;51.10
61398;DHT22;47267;48.130;-2.040;2023-06-05T09:34:36;21.80;51.10
61398;DHT22;47267;48.130;-2.040;2023-06-05T09:37:04;21.80;51.10
61398;DHT22;47267;48.130;-2.040;2023-06-05T09:39:32;21.80;51.10
61398;DHT22;47267;48.130;-2.040;2023-06-05T09:41:58;21.80;51.10
61398;DHT22;47267;48.130;-2.040;2023-06-05T09:44:26;21.80;51.10
61398;DHT22;47267;48.130;-2.040;2023-06-05T09:46:58;21.80;51.20
61398;DHT22;47267;48.130;-2.040;2023-06-05T09:52:07;21.80;51.20
61398;DHT22;47267;48.130;-2.040;2023-06-05T09:54:36;21.80;51.20
61398;DHT22;47267;48.130;-2.040;2023-06-05T09:57:04;21.80;51.20
61398;DHT22;47267;48.130;-2.040;2023-06-05T09:59:32;21.90;51.30
61398;DHT22;47267;48.130;-2.040;2023-06-05T10:02:05;21.90;51.30
61398;DHT22;47267;48.130;-2.040;2023-06-05T10:04:38;21.90;51.30
61398;DHT22;47267;48.130;-2.040;2023-06-05T10:07:07;21.90;51.30
61398;DHT22;47267;48.130;-2.040;2023-06-05T10:09:33;21.90;51.30
61398;DHT22;47267;48.130;-2.040;2023-06-05T10:11:59;21.90;51.40
61398;DHT22;47267;48.130;-2.040;2023-06-05T10:14:25;21.90;51.40
61398;DHT22;47267;48.130;-2.040;2023-06-05T10:16:51;21.90;51.40
61398;DHT22;47267;48.130;-2.040;2023-06-05T10:19:19;21.90;51.50
61398;DHT22;47267;48.130;-2.040;2023-06-05T10:21:48;21.90;51.50
61398;DHT22;47267;48.130;-2.040;2023-06-05T10:24:27;21.90;51.60
61398;DHT22;47267;48.130;-2.040;2023-06-05T10:32:21;22.00;51.70
61398;DHT22;47267;48.130;-2.040;2023-06-05T10:35:11;22.00;51.70
61398;DHT22;47267;48.130;-2.040;2023-06-05T10:40:09;22.00;51.70
61398;DHT22;47267;48.130;-2.040;2023-06-05T10:42:36;22.10;51.80
61398;DHT22;47267;48.130;-2.040;2023-06-05T10:45:03;22.10;51.80
61398;DHT22;47267;48.130;-2.040;2023-06-05T10:52:41;22.10;51.90
61398;DHT22;47267;48.130;-2.040;2023-06-05T10:55:07;22.20;52.00
61398;DHT22;47267;48.130;-2.040;2023-06-05T11:00:21;22.20;52.00
61398;DHT22;47267;48.130;-2.040;2023-06-05T11:02:48;22.20;52.00
61398;DHT22;47267;48.130;-2.040;2023-06-05T11:05:13;22.20;52.00
61398;DHT22;47267;48.130;-2.040;2023-06-05T11:07:41;22.20;52.00
61398;DHT22;47267;48.130;-2.040;2023-06-05T11:10:09;22.30;52.00
61398;DHT22;47267;48.130;-2.040;2023-06-05T11:15:02;22.30;52.00
61398;DHT22;47267;48.130;-2.040;2023-06-05T11:17:32;22.30;52.00
61398;DHT22;47267;48.130;-2.040;2023-06-05T11:19:59;22.30;52.00
61398;DHT22;47267;48.130;-2.040;2023-06-05T11:22:25;22.40;52.10
61398;DHT22;47267;48.130;-2.040;2023-06-05T11:30:16;22.40;52.10
61398;DHT22;47267;48.130;-2.040;2023-06-05T11:32:43;22.40;52.10
61398;DHT22;47267;48.130;-2.040;2023-06-05T11:35:10;22.40;52.00
61398;DHT22;47267;48.130;-2.040;2023-06-05T11:37:36;22.50;52.10
61398;DHT22;47267;48.130;-2.040;2023-06-05T11:40:03;22.50;52.10
61398;DHT22;47267;48.130;-2.040;2023-06-05T11:42:38;22.50;52.10
61398;DHT22;47267;48.130;-2.040;2023-06-05T11:45:14;22.50;52.10
61398;DHT22;47267;48.130;-2.040;2023-06-05T11:47:40;22.50;52.10
61398;DHT22;47267;48.130;-2.040;2023-06-05T11:50:13;22.50;52.10
61398;DHT22;47267;48.130;-2.040;2023-06-05T11:52:41;22.60;52.20
61398;DHT22;47267;48.130;-2.040;2023-06-05T11:55:15;22.60;52.20
61398;DHT22;47267;48.130;-2.040;2023-06-05T11:57:42;22.60;52.20
61398;DHT22;47267;48.130;-2.040;2023-06-05T12:00:09;22.60;52.30
61398;DHT22;47267;48.130;-2.040;2023-06-05T12:02:37;22.60;52.20
61398;DHT22;47267;48.130;-2.040;2023-06-05T12:05:04;22.60;52.20
61398;DHT22;47267;48.130;-2.040;2023-06-05T12:07:31;22.60;52.30
61398;DHT22;47267;48.130;-2.040;2023-06-05T12:10:02;22.70;52.30
61398;DHT22;47267;48.130;-2.040;2023-06-05T12:12:29;22.70;52.30
61398;DHT22;47267;48.130;-2.040;2023-06-05T12:14:55;22.70;52.30
61398;DHT22;47267;48.130;-2.040;2023-06-05T12:17:24;22.70;52.40
61398;DHT22;47267;48.130;-2.040;2023-06-05T12:19:53;22.70;52.40
61398;DHT22;47267;48.130;-2.040;2023-06-05T12:22:19;22.70;52.40
61398;DHT22;47267;48.130;-2.040;2023-06-05T12:24:45;22.70;52.40
61398;DHT22;47267;48.130;-2.040;2023-06-05T12:27:11;22.80;52.50
61398;DHT22;47267;48.130;-2.040;2023-06-05T12:29:38;22.80;52.50
61398;DHT22;47267;48.130;-2.040;2023-06-05T12:32:23;22.80;52.50
61398;DHT22;47267;48.130;-2.040;2023-06-05T12:34:50;22.90;52.50
61398;DHT22;47267;48.130;-2.040;2023-06-05T12:37:33;22.80;52.50
61398;DHT22;47267;48.130;-2.040;2023-06-05T12:40:07;22.90;52.50
61398;DHT22;47267;48.130;-2.040;2023-06-05T12:42:37;22.90;52.50
61398;DHT22;47267;48.130;-2.040;2023-06-05T12:45:04;22.90;52.50
61398;DHT22;47267;48.130;-2.040;2023-06-05T12:47:30;23.00;52.60
61398;DHT22;47267;48.130;-2.040;2023-06-05T12:49:56;23.00;52.60
61398;DHT22;47267;48.130;-2.040;2023-06-05T12:52:25;23.00;52.60
61398;DHT22;47267;48.130;-2.040;2023-06-05T12:54:52;23.00;52.60
61398;DHT22;47267;48.130;-2.040;2023-06-05T12:57:18;23.00;53.10
61398;DHT22;47267;48.130;-2.040;2023-06-05T12:59:51;23.10;52.60
61398;DHT22;47267;48.130;-2.040;2023-06-05T13:02:17;23.10;52.60
61398;DHT22;47267;48.130;-2.040;2023-06-05T13:04:42;23.10;52.60
61398;DHT22;47267;48.130;-2.040;2023-06-05T13:07:08;23.10;52.60
61398;DHT22;47267;48.130;-2.040;2023-06-05T13:09:39;23.20;52.70
61398;DHT22;47267;48.130;-2.040;2023-06-05T13:12:05;23.20;52.60
61398;DHT22;47267;48.130;-2.040;2023-06-05T13:14:31;23.20;52.60
61398;DHT22;47267;48.130;-2.040;2023-06-05T13:16:57;23.20;52.60
61398;DHT22;47267;48.130;-2.040;2023-06-05T13:19:23;23.20;52.60
61398;DHT22;47267;48.130;-2.040;2023-06-05T13:21:49;23.20;52.60
61398;DHT22;47267;48.130;-2.040;2023-06-05T13:24:16;23.30;52.70
61398;DHT22;47267;48.130;-2.040;2023-06-05T13:26:42;23.30;52.70
61398;DHT22;47267;48.130;-2.040;2023-06-05T13:29:09;23.30;52.70
61398;DHT22;47267;48.130;-2.040;2023-06-05T13:31:35;23.30;52.70
61398;DHT22;47267;48.130;-2.040;2023-06-05T13:34:01;23.30;52.70
61398;DHT22;47267;48.130;-2.040;2023-06-05T13:36:27;23.40;52.70
61398;DHT22;47267;48.130;-2.040;2023-06-05T13:38:53;23.40;52.70
61398;DHT22;47267;48.130;-2.040;2023-06-05T13:41:18;23.40;52.80
61398;DHT22;47267;48.130;-2.040;2023-06-05T13:43:44;23.40;52.80
61398;DHT22;47267;48.130;-2.040;2023-06-05T13:46:10;23.40;52.80
61398;DHT22;47267;48.130;-2.040;2023-06-05T13:48:36;23.40;52.80
61398;DHT22;47267;48.130;-2.040;2023-06-05T13:51:03;23.50;52.80
61398;DHT22;47267;48.130;-2.040;2023-06-05T13:53:29;23.50;53.40
61398;DHT22;47267;48.130;-2.040;2023-06-05T13:56:04;23.50;52.80
61398;DHT22;47267;48.130;-2.040;2023-06-05T13:58:32;23.50;53.20
61398;DHT22;47267;48.130;-2.040;2023-06-05T14:00:59;23.60;53.00
61398;DHT22;47267;48.130;-2.040;2023-06-05T14:03:25;23.60;52.90
61398;DHT22;47267;48.130;-2.040;2023-06-05T14:05:51;23.60;52.90
61398;DHT22;47267;48.130;-2.040;2023-06-05T14:08:17;23.60;53.00
61398;DHT22;47267;48.130;-2.040;2023-06-05T14:10:43;23.70;53.00
61398;DHT22;47267;48.130;-2.040;2023-06-05T14:13:09;23.70;53.00
61398;DHT22;47267;48.130;-2.040;2023-06-05T14:15:35;23.70;53.00
61398;DHT22;47267;48.130;-2.040;2023-06-05T14:18:03;23.70;53.00
61398;DHT22;47267;48.130;-2.040;2023-06-05T14:20:29;23.70;53.00
61398;DHT22;47267;48.130;-2.040;2023-06-05T14:22:56;23.80;53.10
61398;DHT22;47267;48.130;-2.040;2023-06-05T14:25:22;23.80;53.10
61398;DHT22;47267;48.130;-2.040;2023-06-05T14:27:50;23.80;53.10
61398;DHT22;47267;48.130;-2.040;2023-06-05T14:30:15;23.80;53.10
61398;DHT22;47267;48.130;-2.040;2023-06-05T14:32:41;23.80;53.10
61398;DHT22;47267;48.130;-2.040;2023-06-05T14:35:07;23.90;53.10
61398;DHT22;47267;48.130;-2.040;2023-06-05T14:37:33;23.90;53.10
61398;DHT22;47267;48.130;-2.040;2023-06-05T14:39:59;23.90;53.10
61398;DHT22;47267;48.130;-2.040;2023-06-05T14:42:25;23.90;53.20
61398;DHT22;47267;48.130;-2.040;2023-06-05T14:44:51;23.90;53.10
61398;DHT22;47267;48.130;-2.040;2023-06-05T14:47:16;24.00;53.20
61398;DHT22;47267;48.130;-2.040;2023-06-05T14:49:42;24.00;53.20
61398;DHT22;47267;48.130;-2.040;2023-06-05T14:52:08;24.00;53.20
61398;DHT22;47267;48.130;-2.040;2023-06-05T14:54:33;24.00;53.20
61398;DHT22;47267;48.130;-2.040;2023-06-05T14:56:59;24.00;53.20
61398;DHT22;47267;48.130;-2.040;2023-06-05T14:59:25;24.00;53.20
61398;DHT22;47267;48.130;-2.040;2023-06-05T15:01:51;24.10;53.30
61398;DHT22;47267;48.130;-2.040;2023-06-05T15:04:17;24.10;53.30
61398;DHT22;47267;48.130;-2.040;2023-06-05T15:06:42;24.10;53.30
61398;DHT22;47267;48.130;-2.040;2023-06-05T15:09:08;24.10;53.30
61398;DHT22;47267;48.130;-2.040;2023-06-05T15:11:34;24.20;53.30
61398;DHT22;47267;48.130;-2.040;2023-06-05T15:14:00;24.20;53.30
61398;DHT22;47267;48.130;-2.040;2023-06-05T15:16:26;24.20;53.30
61398;DHT22;47267;48.130;-2.040;2023-06-05T15:18:52;24.20;53.30
61398;DHT22;47267;48.130;-2.040;2023-06-05T15:21:18;24.20;53.30
61398;DHT22;47267;48.130;-2.040;2023-06-05T15:23:44;24.20;53.30
61398;DHT22;47267;48.130;-2.040;2023-06-05T15:26:09;24.30;53.30
61398;DHT22;47267;48.130;-2.040;2023-06-05T15:28:35;24.30;53.30
61398;DHT22;47267;48.130;-2.040;2023-06-05T15:31:01;24.30;53.30
61398;DHT22;47267;48.130;-2.040;2023-06-05T15:33:26;24.30;53.30
61398;DHT22;47267;48.130;-2.040;2023-06-05T15:35:52;24.40;53.40
61398;DHT22;47267;48.130;-2.040;2023-06-05T15:38:18;24.40;53.40
61398;DHT22;47267;48.130;-2.040;2023-06-05T15:40:43;24.40;53.40
61398;DHT22;47267;48.130;-2.040;2023-06-05T15:43:10;24.40;53.40
61398;DHT22;47267;48.130;-2.040;2023-06-05T15:45:37;24.40;53.40